Temp: 19.6°C   Baro: 1012.1mb
  Wind: 2.9mph   Dir: W (281°)
  Rain: 0.0mm (0.0mm/hr)
  Solar: 111W/m2  Hum: 65%
 
Bath Spa Weather Station Historical Data
Daily Summary for June 5, 2019 Units:  Both    English   Metric
Daily Weekly Monthly Yearly Custom
  High: Low: Average:
Temperature: 71.1 °F /  21.7 °C 59.7 °F /  15.4 °C 64.6 °F /  18.1 °C
Dew Point: 59.2 °F /  15.1 °C 53.2 °F /  11.8 °C 56.6 °F /  13.7 °C
Humidity: 91% 59.7% 76%
Wind Speed: 11.5mph /  18.5km/h - 5.1mph /  8.2km/h
Wind Gust: 22mph /  35.4km/h - -
Wind- - WSW
Pressure: 29.85 in /  1010.7 hPa 29.77 in /  1008 hPa -
Precipitation: 0.05 in /  1.27 mm    
Historical Graphs
 
 
Tabular Data for June 5, 2019
Time Temperature Dew Point Pressure Wind Wind Speed Wind Gust Humidity Rainfall Rate (Hourly) solar
00:04 60.8 °F /  16 °C 56.3 °F /  13.5 °C 29.85in /  1010.7hPa SSW 3mph /  4.8km/h 7mph /  11.3km/h 85% 0.00in /  0mm 0 W/m2
00:09 60.8 °F /  16 °C 56.3 °F /  13.5 °C 29.85in /  1010.7hPa SW 3mph /  4.8km/h 7mph /  11.3km/h 85% 0.00in /  0mm 0 W/m2
00:14 60.8 °F /  16 °C 56.3 °F /  13.5 °C 29.85in /  1010.7hPa SW 2.1mph /  3.4km/h 7mph /  11.3km/h 85% 0.00in /  0mm 0 W/m2
00:19 60.9 °F /  16.1 °C 56.4 °F /  13.6 °C 29.85in /  1010.7hPa SSW 3.2mph /  5.1km/h 7mph /  11.3km/h 85% 0.00in /  0mm 0 W/m2
00:24 61 °F /  16.1 °C 56.6 °F /  13.7 °C 29.85in /  1010.7hPa WSW 2.8mph /  4.5km/h 6mph /  9.7km/h 85.4% 0.00in /  0mm 0 W/m2
00:29 61 °F /  16.1 °C 56.8 °F /  13.8 °C 29.85in /  1010.7hPa SW 1.5mph /  2.4km/h 6mph /  9.7km/h 86% 0.00in /  0mm 0 W/m2
00:34 61.2 °F /  16.2 °C 57 °F /  13.9 °C 29.84in /  1010.4hPa SSW 2.5mph /  4km/h 6mph /  9.7km/h 86% 0.00in /  0mm 0 W/m2
00:39 61.2 °F /  16.2 °C 57 °F /  13.9 °C 29.84in /  1010.4hPa South 1.5mph /  2.4km/h 5mph /  8km/h 86% 0.00in /  0mm 0 W/m2
00:44 61.2 °F /  16.2 °C 57 °F /  13.9 °C 29.84in /  1010.4hPa South 4.3mph /  6.9km/h 7mph /  11.3km/h 86% 0.00in /  0mm 0 W/m2
00:49 61.1 °F /  16.2 °C 56.9 °F /  13.8 °C 29.84in /  1010.4hPa South 2.9mph /  4.7km/h 7mph /  11.3km/h 86% 0.00in /  0mm 0 W/m2
00:54 61 °F /  16.1 °C 56.8 °F /  13.8 °C 29.84in /  1010.4hPa South 0.4mph /  0.6km/h 3mph /  4.8km/h 86% 0.00in /  0mm 0 W/m2
00:59 61.1 °F /  16.2 °C 56.9 °F /  13.8 °C 29.84in /  1010.4hPa South 2.1mph /  3.4km/h 7mph /  11.3km/h 86% 0.00in /  0mm 0 W/m2
01:04 61.2 °F /  16.2 °C 57 °F /  13.9 °C 29.84in /  1010.4hPa SSW 0.7mph /  1.1km/h 7mph /  11.3km/h 86% 0.00in /  0mm 0 W/m2
01:09 61.2 °F /  16.2 °C 57 °F /  13.9 °C 29.83in /  1010hPa SSW 1.5mph /  2.4km/h 6mph /  9.7km/h 86% 0.00in /  0mm 0 W/m2
01:14 61.3 °F /  16.3 °C 57.2 °F /  14 °C 29.83in /  1010hPa Calm   4mph /  6.4km/h 86% 0.00in /  0mm 0 W/m2
01:19 61.3 °F /  16.3 °C 57.2 °F /  14 °C 29.83in /  1010hPa SSW 0.8mph /  1.3km/h 5mph /  8km/h 86% 0.00in /  0mm 0 W/m2
01:24 61.3 °F /  16.3 °C 57.2 °F /  14 °C 29.83in /  1010hPa SSW 0.6mph /  1km/h 5mph /  8km/h 86% 0.00in /  0mm 0 W/m2
01:29 61.3 °F /  16.3 °C 57.2 °F /  14 °C 29.83in /  1010hPa SSW 0.2mph /  0.3km/h 3mph /  4.8km/h 86% 0.00in /  0mm 0 W/m2
01:34 61.3 °F /  16.3 °C 57.2 °F /  14 °C 29.83in /  1010hPa SSW 1.6mph /  2.6km/h 5mph /  8km/h 86% 0.00in /  0mm 0 W/m2
01:39 61.3 °F /  16.3 °C 57.2 °F /  14 °C 29.83in /  1010hPa SSW 0.2mph /  0.3km/h 5mph /  8km/h 86% 0.00in /  0mm 0 W/m2
01:44 61.4 °F /  16.3 °C 57.3 °F /  14.1 °C 29.83in /  1010hPa SSW 2.7mph /  4.3km/h 9mph /  14.5km/h 86% 0.00in /  0mm 0 W/m2
01:49 61.5 °F /  16.4 °C 57.4 °F /  14.1 °C 29.82in /  1009.7hPa SW 2mph /  3.2km/h 9mph /  14.5km/h 86% 0.00in /  0mm 0 W/m2
01:54 61.5 °F /  16.4 °C 57.4 °F /  14.1 °C 29.82in /  1009.7hPa SW 2.2mph /  3.5km/h 5mph /  8km/h 86% 0.00in /  0mm 0 W/m2
01:59 61.6 °F /  16.4 °C 57.4 °F /  14.1 °C 29.82in /  1009.7hPa SW 2.4mph /  3.9km/h 6mph /  9.7km/h 86% 0.00in /  0mm 0 W/m2
02:04 61.7 °F /  16.5 °C 57.4 °F /  14.1 °C 29.82in /  1009.7hPa SSW 3mph /  4.8km/h 7mph /  11.3km/h 86% 0.00in /  0mm 0 W/m2
02:09 61.7 °F /  16.5 °C 57.4 °F /  14.1 °C 29.83in /  1010hPa SW 2mph /  3.2km/h 7mph /  11.3km/h 86% 0.00in /  0mm 0 W/m2
02:14 61.7 °F /  16.5 °C 57.4 °F /  14.1 °C 29.83in /  1010hPa SSW 2.9mph /  4.7km/h 7mph /  11.3km/h 86% 0.00in /  0mm 0 W/m2
02:19 61.7 °F /  16.5 °C 57.4 °F /  14.1 °C 29.82in /  1009.7hPa SSW 1.1mph /  1.8km/h 7mph /  11.3km/h 86% 0.00in /  0mm 0 W/m2
02:24 61.7 °F /  16.5 °C 57.7 °F /  14.3 °C 29.82in /  1009.7hPa SSW 1.7mph /  2.7km/h 6mph /  9.7km/h 86.8% 0.00in /  0mm 0 W/m2
02:29 61.7 °F /  16.5 °C 57.7 °F /  14.3 °C 29.82in /  1009.7hPa SSW 2.4mph /  3.9km/h 7mph /  11.3km/h 87% 0.00in /  0mm 0 W/m2
02:34 61.6 °F /  16.4 °C 57.6 °F /  14.2 °C 29.82in /  1009.7hPa SSW 2.2mph /  3.5km/h 7mph /  11.3km/h 87% 0.00in /  0mm 0 W/m2
02:39 61.5 °F /  16.4 °C 57.6 °F /  14.2 °C 29.81in /  1009.4hPa SW 2.6mph /  4.2km/h 6mph /  9.7km/h 87.1% 0.00in /  0mm 0 W/m2
02:44 61.5 °F /  16.4 °C 57.9 °F /  14.4 °C 29.81in /  1009.4hPa SSW 2.1mph /  3.4km/h 7mph /  11.3km/h 88% 0.00in /  0mm 0 W/m2
02:49 61.5 °F /  16.4 °C 57.9 °F /  14.4 °C 29.81in /  1009.4hPa SSW 2.5mph /  4km/h 6mph /  9.7km/h 88% 0.00in /  0mm 0 W/m2
02:54 61.5 °F /  16.4 °C 57.9 °F /  14.4 °C 29.81in /  1009.4hPa SSW 3.3mph /  5.3km/h 8mph /  12.9km/h 88% 0.00in /  0mm 0 W/m2
02:59 61.5 °F /  16.4 °C 57.9 °F /  14.4 °C 29.80in /  1009hPa SW 3.9mph /  6.3km/h 11mph /  17.7km/h 88% 0.00in /  0mm 0 W/m2
03:04 61.5 °F /  16.4 °C 57.9 °F /  14.4 °C 29.80in /  1009hPa SW 2.9mph /  4.7km/h 11mph /  17.7km/h 88% 0.00in /  0mm 0 W/m2
03:09 61.5 °F /  16.4 °C 57.8 °F /  14.3 °C 29.80in /  1009hPa SW 5.3mph /  8.5km/h 13mph /  20.9km/h 87.7% 0.00in /  0mm 0 W/m2
03:14 61.6 °F /  16.4 °C 57.6 °F /  14.2 °C 29.80in /  1009hPa SW 4.5mph /  7.2km/h 11mph /  17.7km/h 87% 0.00in /  0mm 0 W/m2
03:19 61.6 °F /  16.4 °C 57.7 °F /  14.3 °C 29.80in /  1009hPa SSW 2.4mph /  3.9km/h 10mph /  16.1km/h 87% 0.00in /  0mm 0 W/m2
03:24 61.7 °F /  16.5 °C 57.7 °F /  14.3 °C 29.80in /  1009hPa SW 5.1mph /  8.2km/h 9mph /  14.5km/h 87% 0.00in /  0mm 0 W/m2
03:29 61.7 °F /  16.5 °C 57.7 °F /  14.3 °C 29.79in /  1008.7hPa SSW 4.8mph /  7.7km/h 10mph /  16.1km/h 87% 0.00in /  0mm 0 W/m2
03:34 61.7 °F /  16.5 °C 57.7 °F /  14.3 °C 29.79in /  1008.7hPa SSW 5.6mph /  9km/h 12mph /  19.3km/h 87% 0.00in /  0mm 0 W/m2
03:39 61.7 °F /  16.5 °C 57.6 °F /  14.2 °C 29.79in /  1008.7hPa SW 4.8mph /  7.7km/h 11mph /  17.7km/h 86.6% 0.00in /  0mm 0 W/m2
03:44 61.7 °F /  16.5 °C 57.5 °F /  14.2 °C 29.79in /  1008.7hPa SSW 5.8mph /  9.3km/h 12mph /  19.3km/h 86.1% 0.00in /  0mm 0 W/m2
03:49 61.7 °F /  16.5 °C 57.5 °F /  14.2 °C 29.79in /  1008.7hPa SW 5.1mph /  8.2km/h 12mph /  19.3km/h 86.4% 0.00in /  0mm 0 W/m2
03:54 61.7 °F /  16.5 °C 57.7 °F /  14.3 °C 29.79in /  1008.7hPa SSW 2.8mph /  4.5km/h 8mph /  12.9km/h 87% 0.00in /  0mm 0 W/m2
03:59 61.7 °F /  16.5 °C 57.7 °F /  14.3 °C 29.78in /  1008.4hPa SSW 4.6mph /  7.4km/h 10mph /  16.1km/h 87% 0.00in /  0mm 0 W/m2
04:04 61.7 °F /  16.5 °C 57.7 °F /  14.3 °C 29.78in /  1008.4hPa South 2.1mph /  3.4km/h 7mph /  11.3km/h 87% 0.00in /  0mm 0 W/m2
04:09 61.7 °F /  16.5 °C 57.7 °F /  14.3 °C 29.78in /  1008.4hPa SSW 4.3mph /  6.9km/h 10mph /  16.1km/h 87% 0.01in /  0.25mm 0 W/m2
04:14 61.7 °F /  16.5 °C 57.7 °F /  14.3 °C 29.78in /  1008.4hPa SSW 3.6mph /  5.8km/h 8mph /  12.9km/h 87% 0.01in /  0.25mm 0 W/m2
04:19 61.7 °F /  16.5 °C 57.8 °F /  14.3 °C 29.78in /  1008.4hPa SSW 4.4mph /  7.1km/h 9mph /  14.5km/h 87.3% 0.01in /  0.25mm 0 W/m2
04:24 61.7 °F /  16.5 °C 58.1 °F /  14.5 °C 29.78in /  1008.4hPa SW 6.1mph /  9.8km/h 12mph /  19.3km/h 88% 0.01in /  0.25mm 0 W/m2
04:29 61.7 °F /  16.5 °C 58.1 °F /  14.5 °C 29.78in /  1008.4hPa SSW 6mph /  9.7km/h 14mph /  22.5km/h 88% 0.01in /  0.25mm 0 W/m2
04:34 61.7 °F /  16.5 °C 58.1 °F /  14.5 °C 29.78in /  1008.4hPa SSW 5.6mph /  9km/h 14mph /  22.5km/h 88% 0.01in /  0.25mm 0 W/m2
04:39 61.7 °F /  16.5 °C 58.1 °F /  14.5 °C 29.78in /  1008.4hPa SSW 4.6mph /  7.4km/h 13mph /  20.9km/h 88% 0.01in /  0.25mm 0 W/m2
04:44 61.7 °F /  16.5 °C 58.1 °F /  14.5 °C 29.78in /  1008.4hPa SW 5.2mph /  8.4km/h 13mph /  20.9km/h 88% 0.01in /  0.25mm 0 W/m2
04:49 61.7 °F /  16.5 °C 58.1 °F /  14.5 °C 29.78in /  1008.4hPa SW 6.4mph /  10.3km/h 12mph /  19.3km/h 88% 0.01in /  0.25mm 0 W/m2
04:54 61.7 °F /  16.5 °C 58.3 °F /  14.6 °C 29.78in /  1008.4hPa SW 5.6mph /  9km/h 9mph /  14.5km/h 88.6% 0.01in /  0.25mm 0 W/m2
04:59 61.7 °F /  16.5 °C 58.5 °F /  14.7 °C 29.78in /  1008.4hPa SW 5.8mph /  9.3km/h 12mph /  19.3km/h 89% 0.01in /  0.25mm 0 W/m2
05:04 61.8 °F /  16.6 °C 58.6 °F /  14.8 °C 29.78in /  1008.4hPa SW 4.1mph /  6.6km/h 9mph /  14.5km/h 89% 0.01in /  0.25mm 0 W/m2
05:09 61.7 °F /  16.5 °C 58.5 °F /  14.7 °C 29.78in /  1008.4hPa SW 5.7mph /  9.2km/h 11mph /  17.7km/h 89% 0.01in /  0.25mm 0 W/m2
05:14 61.7 °F /  16.5 °C 58.5 °F /  14.7 °C 29.78in /  1008.4hPa SW 6.7mph /  10.8km/h 12mph /  19.3km/h 89% 0.00in /  0mm 0 W/m2
05:19 61.7 °F /  16.5 °C 58.5 °F /  14.7 °C 29.77in /  1008hPa SW 5mph /  8km/h 12mph /  19.3km/h 89% 0.00in /  0mm 0 W/m2
05:24 61.7 °F /  16.5 °C 58.5 °F /  14.7 °C 29.77in /  1008hPa SW 6.3mph /  10.1km/h 11mph /  17.7km/h 89% 0.00in /  0mm 0 W/m2
05:29 61.7 °F /  16.5 °C 58.6 °F /  14.8 °C 29.77in /  1008hPa SW 4.2mph /  6.8km/h 11mph /  17.7km/h 89.5% 0.00in /  0mm 0 W/m2
05:34 61.7 °F /  16.5 °C 58.8 °F /  14.9 °C 29.77in /  1008hPa SSW 5.4mph /  8.7km/h 11mph /  17.7km/h 90% 0.00in /  0mm 0 W/m2
05:39 61.7 °F /  16.5 °C 58.8 °F /  14.9 °C 29.77in /  1008hPa SW 5.5mph /  8.9km/h 10mph /  16.1km/h 90% 0.00in /  0mm 0 W/m2
05:44 61.8 °F /  16.6 °C 58.9 °F /  14.9 °C 29.78in /  1008.4hPa SW 3.8mph /  6.1km/h 9mph /  14.5km/h 90% 0.00in /  0mm 0 W/m2
05:49 61.9 °F /  16.6 °C 59 °F /  15 °C 29.78in /  1008.4hPa SSW 4.2mph /  6.8km/h 11mph /  17.7km/h 90% 0.00in /  0mm 0 W/m2
05:54 62.1 °F /  16.7 °C 59.2 °F /  15.1 °C 29.78in /  1008.4hPa SW 4.2mph /  6.8km/h 9mph /  14.5km/h 90% 0.00in /  0mm 0 W/m2
05:59 62.1 °F /  16.7 °C 59.2 °F /  15.1 °C 29.78in /  1008.4hPa SW 3.9mph /  6.3km/h 9mph /  14.5km/h 90% 0.00in /  0mm 7 W/m2
06:04 62.1 °F /  16.7 °C 59.2 °F /  15.1 °C 29.77in /  1008hPa SW 5.1mph /  8.2km/h 10mph /  16.1km/h 90% 0.00in /  0mm 7 W/m2
06:09 62.1 °F /  16.7 °C 59.2 °F /  15.1 °C 29.78in /  1008.4hPa SW 5.3mph /  8.5km/h 10mph /  16.1km/h 90% 0.00in /  0mm 7 W/m2
06:14 62.1 °F /  16.7 °C 59.2 °F /  15.1 °C 29.78in /  1008.4hPa SW 4mph /  6.4km/h 10mph /  16.1km/h 90% 0.00in /  0mm 9 W/m2
06:19 62 °F /  16.7 °C 59.1 °F /  15.1 °C 29.78in /  1008.4hPa SW 4.8mph /  7.7km/h 9mph /  14.5km/h 90.4% 0.00in /  0mm 9 W/m2
06:24 61.8 °F /  16.6 °C 59.1 °F /  15.1 °C 29.78in /  1008.4hPa SW 4.6mph /  7.4km/h 10mph /  16.1km/h 91% 0.01in /  0.25mm 7 W/m2
06:29 61.7 °F /  16.5 °C 59 °F /  15 °C 29.78in /  1008.4hPa SW 3.9mph /  6.3km/h 10mph /  16.1km/h 91% 0.03in /  0.76mm 7 W/m2
06:34 61.6 °F /  16.4 °C 58.9 °F /  14.9 °C 29.78in /  1008.4hPa WSW 7.9mph /  12.7km/h 15mph /  24.1km/h 91% 0.04in /  1.02mm 12 W/m2
06:39 61.1 °F /  16.2 °C 58.4 °F /  14.7 °C 29.78in /  1008.4hPa West 6.2mph /  10km/h 14mph /  22.5km/h 91% 0.04in /  1.02mm 23 W/m2
06:44 60.7 °F /  15.9 °C 58 °F /  14.4 °C 29.79in /  1008.7hPa West 5.1mph /  8.2km/h 10mph /  16.1km/h 91% 0.04in /  1.02mm 30 W/m2
06:49 60.4 °F /  15.8 °C 57.7 °F /  14.3 °C 29.79in /  1008.7hPa West 6mph /  9.7km/h 11mph /  17.7km/h 91% 0.04in /  1.02mm 35 W/m2
06:54 60.2 °F /  15.7 °C 57.5 °F /  14.2 °C 29.79in /  1008.7hPa West 4.4mph /  7.1km/h 11mph /  17.7km/h 91% 0.04in /  1.02mm 44 W/m2
06:59 60 °F /  15.6 °C 57.3 °F /  14.1 °C 29.79in /  1008.7hPa WNW 5.2mph /  8.4km/h 10mph /  16.1km/h 91% 0.04in /  1.02mm 72 W/m2
07:04 59.9 °F /  15.5 °C 57.2 °F /  14 °C 29.79in /  1008.7hPa WNW 3.5mph /  5.6km/h 10mph /  16.1km/h 91% 0.04in /  1.02mm 72 W/m2
07:09 59.9 °F /  15.5 °C 57.2 °F /  14 °C 29.79in /  1008.7hPa WNW 3.4mph /  5.5km/h 8mph /  12.9km/h 91% 0.04in /  1.02mm 56 W/m2
07:14 59.9 °F /  15.5 °C 57.2 °F /  14 °C 29.80in /  1009hPa WNW 4.6mph /  7.4km/h 9mph /  14.5km/h 91% 0.04in /  1.02mm 54 W/m2
07:19 59.7 °F /  15.4 °C 57 °F /  13.9 °C 29.79in /  1008.7hPa WNW 5.5mph /  8.9km/h 10mph /  16.1km/h 90.6% 0.04in /  1.02mm 54 W/m2
07:24 59.7 °F /  15.4 °C 56.8 °F /  13.8 °C 29.80in /  1009hPa WNW 5.9mph /  9.5km/h 9mph /  14.5km/h 90.2% 0.03in /  0.76mm 54 W/m2
07:29 59.7 °F /  15.4 °C 56.8 °F /  13.8 °C 29.80in /  1009hPa WNW 4mph /  6.4km/h 9mph /  14.5km/h 90% 0.03in /  0.76mm 62 W/m2
07:34 59.7 °F /  15.4 °C 56.8 °F /  13.8 °C 29.80in /  1009hPa West 3.8mph /  6.1km/h 7mph /  11.3km/h 90% 0.02in /  0.51mm 100 W/m2
07:39 59.7 °F /  15.4 °C 56.8 °F /  13.8 °C 29.80in /  1009hPa West 4.4mph /  7.1km/h 8mph /  12.9km/h 90% 0.01in /  0.25mm 134 W/m2
07:44 59.9 °F /  15.5 °C 57 °F /  13.9 °C 29.80in /  1009hPa WNW 3.3mph /  5.3km/h 8mph /  12.9km/h 90% 0.01in /  0.25mm 142 W/m2
07:49 60 °F /  15.6 °C 57.1 °F /  13.9 °C 29.80in /  1009hPa West 3.3mph /  5.3km/h 7mph /  11.3km/h 90% 0.01in /  0.25mm 146 W/m2
07:54 60 °F /  15.6 °C 57.1 °F /  13.9 °C 29.80in /  1009hPa West 4.6mph /  7.4km/h 9mph /  14.5km/h 90% 0.01in /  0.25mm 93 W/m2
07:59 60.3 °F /  15.7 °C 57.4 °F /  14.1 °C 29.80in /  1009hPa WNW 1.4mph /  2.3km/h 5mph /  8km/h 90% 0.00in /  0mm 225 W/m2
08:04 60.4 °F /  15.8 °C 57.5 °F /  14.2 °C 29.80in /  1009hPa West 4.9mph /  7.9km/h 10mph /  16.1km/h 89.7% 0.00in /  0mm 227 W/m2
08:09 60.7 °F /  15.9 °C 57.5 °F /  14.2 °C 29.80in /  1009hPa West 4.9mph /  7.9km/h 10mph /  16.1km/h 89% 0.00in /  0mm 232 W/m2
08:14 61.1 °F /  16.2 °C 57.8 °F /  14.3 °C 29.80in /  1009hPa WNW 3.6mph /  5.8km/h 9mph /  14.5km/h 88.9% 0.00in /  0mm 281 W/m2
08:19 61.2 °F /  16.2 °C 57.6 °F /  14.2 °C 29.80in /  1009hPa NW 5.2mph /  8.4km/h 10mph /  16.1km/h 87.8% 0.00in /  0mm 329 W/m2
08:24 61.4 °F /  16.3 °C 57.4 °F /  14.1 °C 29.80in /  1009hPa WNW 4.5mph /  7.2km/h 10mph /  16.1km/h 86.6% 0.00in /  0mm 329 W/m2
08:29 61.7 °F /  16.5 °C 57.4 °F /  14.1 °C 29.80in /  1009hPa WNW 4.5mph /  7.2km/h 9mph /  14.5km/h 85.6% 0.00in /  0mm 325 W/m2
08:34 61.8 °F /  16.6 °C 57.2 °F /  14 °C 29.80in /  1009hPa WNW 3.8mph /  6.1km/h 8mph /  12.9km/h 84.7% 0.00in /  0mm 315 W/m2
08:39 62.2 °F /  16.8 °C 57.4 °F /  14.1 °C 29.80in /  1009hPa West 4.2mph /  6.8km/h 8mph /  12.9km/h 84.2% 0.00in /  0mm 339 W/m2
08:44 62.3 °F /  16.8 °C 56.8 °F /  13.8 °C 29.80in /  1009hPa West 5.3mph /  8.5km/h 10mph /  16.1km/h 82.4% 0.00in /  0mm 373 W/m2
08:49 62.7 °F /  17.1 °C 56.7 °F /  13.7 °C 29.80in /  1009hPa WNW 3.6mph /  5.8km/h 9mph /  14.5km/h 80.9% 0.00in /  0mm 540 W/m2
08:54 63.1 °F /  17.3 °C 57 °F /  13.9 °C 29.80in /  1009hPa WNW 3.1mph /  5km/h 10mph /  16.1km/h 80.3% 0.00in /  0mm 540 W/m2
08:59 63.1 °F /  17.3 °C 56.5 °F /  13.6 °C 29.80in /  1009hPa WNW 7.1mph /  11.4km/h 11mph /  17.7km/h 79.4% 0.00in /  0mm 206 W/m2
09:04 62.9 °F /  17.2 °C 56.2 °F /  13.4 °C 29.80in /  1009hPa WNW 4.6mph /  7.4km/h 9mph /  14.5km/h 79% 0.00in /  0mm 223 W/m2
09:09 62.8 °F /  17.1 °C 55.8 °F /  13.2 °C 29.80in /  1009hPa WNW 4.4mph /  7.1km/h 9mph /  14.5km/h 78.1% 0.00in /  0mm 221 W/m2
09:14 62.9 °F /  17.2 °C 55.6 °F /  13.1 °C 29.80in /  1009hPa WNW 4.6mph /  7.4km/h 11mph /  17.7km/h 77% 0.00in /  0mm 527 W/m2
09:19 63 °F /  17.2 °C 55.3 °F /  12.9 °C 29.80in /  1009hPa WNW 6.8mph /  10.9km/h 13mph /  20.9km/h 76.1% 0.00in /  0mm 355 W/m2
09:24 63 °F /  17.2 °C 55.2 °F /  12.9 °C 29.80in /  1009hPa NW 5.5mph /  8.9km/h 13mph /  20.9km/h 76.1% 0.00in /  0mm 478 W/m2
09:29 63.1 °F /  17.3 °C 55.6 °F /  13.1 °C 29.80in /  1009hPa West 6.4mph /  10.3km/h 12mph /  19.3km/h 76.6% 0.00in /  0mm 471 W/m2
09:34 63.1 °F /  17.3 °C 55.3 °F /  12.9 °C 29.80in /  1009hPa WNW 6.6mph /  10.6km/h 12mph /  19.3km/h 75.8% 0.00in /  0mm 492 W/m2
09:39 63.4 °F /  17.4 °C 55.7 °F /  13.2 °C 29.80in /  1009hPa WNW 4.4mph /  7.1km/h 11mph /  17.7km/h 76% 0.00in /  0mm 589 W/m2
09:44 64.2 °F /  17.9 °C 56.4 °F /  13.6 °C 29.80in /  1009hPa West 6.3mph /  10.1km/h 11mph /  17.7km/h 75.7% 0.00in /  0mm 682 W/m2
09:49 64.9 °F /  18.3 °C 56.7 °F /  13.7 °C 29.80in /  1009hPa West 5.4mph /  8.7km/h 12mph /  19.3km/h 74.6% 0.00in /  0mm 682 W/m2
09:54 65 °F /  18.3 °C 56.3 °F /  13.5 °C 29.80in /  1009hPa West 5mph /  8km/h 9mph /  14.5km/h 73.5% 0.00in /  0mm 538 W/m2
09:59 64.5 °F /  18.1 °C 56.2 °F /  13.4 °C 29.80in /  1009hPa West 7.3mph /  11.7km/h 11mph /  17.7km/h 74.5% 0.00in /  0mm 547 W/m2
10:04 64.7 °F /  18.2 °C 56.3 °F /  13.5 °C 29.80in /  1009hPa WSW 6.1mph /  9.8km/h 11mph /  17.7km/h 74.2% 0.00in /  0mm 585 W/m2
10:09 65 °F /  18.3 °C 56.3 °F /  13.5 °C 29.80in /  1009hPa West 7.1mph /  11.4km/h 12mph /  19.3km/h 73.5% 0.00in /  0mm 715 W/m2
10:14 65.8 °F /  18.8 °C 57 °F /  13.9 °C 29.80in /  1009hPa WSW 6.4mph /  10.3km/h 17mph /  27.4km/h 73.1% 0.00in /  0mm 780 W/m2
10:19 65.8 °F /  18.8 °C 55.8 °F /  13.2 °C 29.80in /  1009hPa West 8.2mph /  13.2km/h 17mph /  27.4km/h 70% 0.00in /  0mm 780 W/m2
10:24 65.4 °F /  18.6 °C 55.9 °F /  13.3 °C 29.81in /  1009.4hPa West 7.6mph /  12.2km/h 16mph /  25.7km/h 71.3% 0.00in /  0mm 322 W/m2
10:29 65.3 °F /  18.5 °C 55.7 °F /  13.2 °C 29.81in /  1009.4hPa West 8.5mph /  13.7km/h 16mph /  25.7km/h 71.3% 0.00in /  0mm 563 W/m2
10:34 65.6 °F /  18.7 °C 55.7 °F /  13.2 °C 29.81in /  1009.4hPa West 8.2mph /  13.2km/h 16mph /  25.7km/h 70.6% 0.00in /  0mm 701 W/m2
10:39 65.9 °F /  18.8 °C 55.9 °F /  13.3 °C 29.81in /  1009.4hPa WSW 5mph /  8km/h 12mph /  19.3km/h 70.2% 0.00in /  0mm 701 W/m2
10:44 66.2 °F /  19 °C 55.7 °F /  13.2 °C 29.81in /  1009.4hPa WSW 9.9mph /  15.9km/h 18mph /  29km/h 69% 0.00in /  0mm 722 W/m2
10:49 66.5 °F /  19.2 °C 55.2 °F /  12.9 °C 29.80in /  1009hPa West 8.1mph /  13km/h 18mph /  29km/h 67.1% 0.00in /  0mm 745 W/m2
10:54 67 °F /  19.4 °C 55.6 °F /  13.1 °C 29.80in /  1009hPa WSW 8.3mph /  13.4km/h 15mph /  24.1km/h 66.9% 0.00in /  0mm 875 W/m2
10:59 67 °F /  19.4 °C 55.6 °F /  13.1 °C 29.80in /  1009hPa WNW 7mph /  11.3km/h 13mph /  20.9km/h 66.7% 0.00in /  0mm 875 W/m2
11:04 66.3 °F /  19.1 °C 54.6 °F /  12.6 °C 29.80in /  1009hPa WNW 8.2mph /  13.2km/h 15mph /  24.1km/h 65.8% 0.00in /  0mm 374 W/m2
11:09 65.8 °F /  18.8 °C 54.4 °F /  12.4 °C 29.80in /  1009hPa WNW 9.1mph /  14.6km/h 15mph /  24.1km/h 66.8% 0.00in /  0mm 374 W/m2
11:14 65.7 °F /  18.7 °C 54.7 °F /  12.6 °C 29.80in /  1009hPa WNW 8.1mph /  13km/h 15mph /  24.1km/h 67.6% 0.00in /  0mm 364 W/m2
11:19 66.3 °F /  19.1 °C 55.2 °F /  12.9 °C 29.80in /  1009hPa WSW 7.4mph /  11.9km/h 15mph /  24.1km/h 67.6% 0.00in /  0mm 466 W/m2
11:24 66.6 °F /  19.2 °C 55.1 °F /  12.8 °C 29.80in /  1009hPa WSW 9.1mph /  14.6km/h 15mph /  24.1km/h 66.3% 0.00in /  0mm 951 W/m2
11:29 67.2 °F /  19.6 °C 55.1 °F /  12.8 °C 29.80in /  1009hPa WSW 7.8mph /  12.6km/h 15mph /  24.1km/h 65.4% 0.00in /  0mm 882 W/m2
11:34 67.3 °F /  19.6 °C 54.8 °F /  12.7 °C 29.80in /  1009hPa WNW 7.2mph /  11.6km/h 13mph /  20.9km/h 64.3% 0.00in /  0mm 817 W/m2
11:39 67 °F /  19.4 °C 54.8 °F /  12.7 °C 29.80in /  1009hPa West 7.4mph /  11.9km/h 13mph /  20.9km/h 64.9% 0.00in /  0mm 573 W/m2
11:44 67.5 °F /  19.7 °C 54.7 °F /  12.6 °C 29.80in /  1009hPa West 5mph /  8km/h 11mph /  17.7km/h 63.6% 0.00in /  0mm 861 W/m2
11:49 68.3 °F /  20.2 °C 55.4 °F /  13 °C 29.80in /  1009hPa WSW 7.7mph /  12.4km/h 14mph /  22.5km/h 63.5% 0.00in /  0mm 861 W/m2
11:54 67.3 °F /  19.6 °C 55 °F /  12.8 °C 29.80in /  1009hPa WSW 9.4mph /  15.1km/h 16mph /  25.7km/h 64.6% 0.00in /  0mm 396 W/m2
11:59 66.8 °F /  19.3 °C 55.4 °F /  13 °C 29.80in /  1009hPa West 6.9mph /  11.1km/h 16mph /  25.7km/h 66.7% 0.00in /  0mm 545 W/m2
12:04 67.3 °F /  19.6 °C 55.8 °F /  13.2 °C 29.80in /  1009hPa WSW 6.3mph /  10.1km/h 13mph /  20.9km/h 66.5% 0.00in /  0mm 933 W/m2
12:09 67.6 °F /  19.8 °C 56.1 °F /  13.4 °C 29.80in /  1009hPa West 5.6mph /  9km/h 13mph /  20.9km/h 66.7% 0.00in /  0mm 933 W/m2
12:14 68.3 °F /  20.2 °C 56 °F /  13.3 °C 29.80in /  1009hPa WSW 8.2mph /  13.2km/h 22mph /  35.4km/h 65% 0.00in /  0mm 828 W/m2
12:19 68.7 °F /  20.4 °C 54.7 °F /  12.6 °C 29.80in /  1009hPa West 6.5mph /  10.5km/h 22mph /  35.4km/h 61% 0.00in /  0mm 782 W/m2
12:24 68.9 °F /  20.5 °C 54.4 °F /  12.4 °C 29.80in /  1009hPa WSW 7.4mph /  11.9km/h 16mph /  25.7km/h 59.8% 0.00in /  0mm 779 W/m2
12:29 69.1 °F /  20.6 °C 54.6 °F /  12.6 °C 29.80in /  1009hPa West 8.4mph /  13.5km/h 17mph /  27.4km/h 60% 0.00in /  0mm 872 W/m2
12:34 69.1 °F /  20.6 °C 55.4 °F /  13 °C 29.80in /  1009hPa WNW 6.7mph /  10.8km/h 15mph /  24.1km/h 61.6% 0.00in /  0mm 879 W/m2
12:39 68.7 °F /  20.4 °C 55.7 °F /  13.2 °C 29.80in /  1009hPa WNW 7mph /  11.3km/h 15mph /  24.1km/h 63.1% 0.00in /  0mm 1104 W/m2
12:44 68.6 °F /  20.3 °C 56.2 °F /  13.4 °C 29.80in /  1009hPa West 7.3mph /  11.7km/h 15mph /  24.1km/h 64.5% 0.00in /  0mm 1104 W/m2
12:49 68.6 °F /  20.3 °C 56.4 °F /  13.6 °C 29.80in /  1009hPa WNW 9mph /  14.5km/h 16mph /  25.7km/h 65.2% 0.00in /  0mm 1002 W/m2
12:54 68.3 °F /  20.2 °C 56.7 °F /  13.7 °C 29.80in /  1009hPa WNW 8.3mph /  13.4km/h 15mph /  24.1km/h 66.6% 0.00in /  0mm 1002 W/m2
12:59 68.6 °F /  20.3 °C 57 °F /  13.9 °C 29.80in /  1009hPa West 9mph /  14.5km/h 15mph /  24.1km/h 66.5% 0.00in /  0mm 898 W/m2
13:04 68.8 °F /  20.4 °C 57.4 °F /  14.1 °C 29.80in /  1009hPa WNW 7.5mph /  12.1km/h 11mph /  17.7km/h 66.9% 0.00in /  0mm 904 W/m2
13:09 68.7 °F /  20.4 °C 57.1 °F /  13.9 °C 29.80in /  1009hPa WSW 8.9mph /  14.3km/h 14mph /  22.5km/h 66.7% 0.00in /  0mm 863 W/m2
13:14 68.9 °F /  20.5 °C 57.3 °F /  14.1 °C 29.80in /  1009hPa WSW 6.9mph /  11.1km/h 12mph /  19.3km/h 66.5% 0.00in /  0mm 909 W/m2
13:19 69.3 °F /  20.7 °C 57.5 °F /  14.2 °C 29.80in /  1009hPa West 8.1mph /  13km/h 13mph /  20.9km/h 66.4% 0.00in /  0mm 916 W/m2
13:24 69.6 °F /  20.9 °C 57.4 °F /  14.1 °C 29.80in /  1009hPa West 8.9mph /  14.3km/h 15mph /  24.1km/h 65% 0.00in /  0mm 904 W/m2
13:29 69.7 °F /  20.9 °C 56.9 °F /  13.8 °C 29.80in /  1009hPa WNW 9.8mph /  15.8km/h 17mph /  27.4km/h 64% 0.00in /  0mm 879 W/m2
13:34 69.8 °F /  21 °C 56.8 °F /  13.8 °C 29.80in /  1009hPa WNW 7.6mph /  12.2km/h 17mph /  27.4km/h 63.4% 0.00in /  0mm 875 W/m2
13:39 70 °F /  21.1 °C 55.8 °F /  13.2 °C 29.80in /  1009hPa West 9.1mph /  14.6km/h 17mph /  27.4km/h 60.8% 0.00in /  0mm 879 W/m2
13:44 70.2 °F /  21.2 °C 55.6 °F /  13.1 °C 29.80in /  1009hPa West 8.8mph /  14.2km/h 18mph /  29km/h 59.7% 0.00in /  0mm 942 W/m2
13:49 69.8 °F /  21 °C 55.5 °F /  13.1 °C 29.80in /  1009hPa WNW 8mph /  12.9km/h 16mph /  25.7km/h 60.3% 0.00in /  0mm 512 W/m2
13:54 68.9 °F /  20.5 °C 55.6 °F /  13.1 °C 29.80in /  1009hPa West 9.7mph /  15.6km/h 18mph /  29km/h 62.6% 0.00in /  0mm 413 W/m2
13:59 68.8 °F /  20.4 °C 56.4 °F /  13.6 °C 29.80in /  1009hPa West 5.6mph /  9km/h 17mph /  27.4km/h 64.5% 0.00in /  0mm 417 W/m2
14:04 69.1 °F /  20.6 °C 56.3 °F /  13.5 °C 29.80in /  1009hPa West 6.7mph /  10.8km/h 14mph /  22.5km/h 63.8% 0.00in /  0mm 362 W/m2
14:09 68.9 °F /  20.5 °C 56.4 °F /  13.6 °C 29.80in /  1009hPa WNW 8.1mph /  13km/h 15mph /  24.1km/h 64.3% 0.00in /  0mm 380 W/m2
14:14 68.6 °F /  20.3 °C 56.2 °F /  13.4 °C 29.80in /  1009hPa West 8.7mph /  14km/h 16mph /  25.7km/h 64.4% 0.00in /  0mm 582 W/m2
14:19 69.1 °F /  20.6 °C 56.9 °F /  13.8 °C 29.80in /  1009hPa West 6.1mph /  9.8km/h 12mph /  19.3km/h 65% 0.00in /  0mm 582 W/m2
14:24 69.1 °F /  20.6 °C 56.9 °F /  13.8 °C 29.80in /  1009hPa West 9.9mph /  15.9km/h 17mph /  27.4km/h 65.3% 0.00in /  0mm 410 W/m2
14:29 68.6 °F /  20.3 °C 56.8 °F /  13.8 °C 29.80in /  1009hPa WSW 8.3mph /  13.4km/h 15mph /  24.1km/h 66.2% 0.00in /  0mm 448 W/m2
14:34 68.8 °F /  20.4 °C 57.3 °F /  14.1 °C 29.80in /  1009hPa WSW 7mph /  11.3km/h 16mph /  25.7km/h 66.7% 0.00in /  0mm 520 W/m2
14:39 69.9 °F /  21.1 °C 58.1 °F /  14.5 °C 29.80in /  1009hPa WSW 3.5mph /  5.6km/h 11mph /  17.7km/h 66.2% 0.00in /  0mm 520 W/m2
14:44 69.9 °F /  21.1 °C 57.8 °F /  14.3 °C 29.80in /  1009hPa WNW 7.9mph /  12.7km/h 13mph /  20.9km/h 65.3% 0.00in /  0mm 914 W/m2
14:49 69.9 °F /  21.1 °C 57.8 °F /  14.3 °C 29.80in /  1009hPa West 7.1mph /  11.4km/h 15mph /  24.1km/h 65.3% 0.00in /  0mm 872 W/m2
14:54 70.7 °F /  21.5 °C 57.8 °F /  14.3 °C 29.80in /  1009hPa WSW 7.4mph /  11.9km/h 13mph /  20.9km/h 63.6% 0.00in /  0mm 895 W/m2
14:59 70.5 °F /  21.4 °C 57.7 °F /  14.3 °C 29.80in /  1009hPa WNW 7.6mph /  12.2km/h 13mph /  20.9km/h 63.8% 0.00in /  0mm 895 W/m2
15:04 70.7 °F /  21.5 °C 58.3 °F /  14.6 °C 29.80in /  1009hPa West 6.8mph /  10.9km/h 12mph /  19.3km/h 64.9% 0.00in /  0mm 914 W/m2
15:09 71.1 °F /  21.7 °C 58 °F /  14.4 °C 29.80in /  1009hPa WNW 7.6mph /  12.2km/h 13mph /  20.9km/h 63.3% 0.00in /  0mm 914 W/m2
15:14 70.5 °F /  21.4 °C 56.8 °F /  13.8 °C 29.80in /  1009hPa WNW 11.2mph /  18km/h 17mph /  27.4km/h 61.9% 0.00in /  0mm 942 W/m2
15:19 70 °F /  21.1 °C 56.3 °F /  13.5 °C 29.80in /  1009hPa West 8.2mph /  13.2km/h 14mph /  22.5km/h 62.1% 0.00in /  0mm 782 W/m2
15:24 70.5 °F /  21.4 °C 56.9 °F /  13.8 °C 29.80in /  1009hPa WNW 7.3mph /  11.7km/h 13mph /  20.9km/h 62.2% 0.00in /  0mm 868 W/m2
15:29 70.6 °F /  21.4 °C 56.6 °F /  13.7 °C 29.80in /  1009hPa WNW 7.2mph /  11.6km/h 13mph /  20.9km/h 61% 0.00in /  0mm 793 W/m2
15:34 70.8 °F /  21.6 °C 56.7 °F /  13.7 °C 29.80in /  1009hPa West 7.6mph /  12.2km/h 13mph /  20.9km/h 61% 0.00in /  0mm 824 W/m2
15:39 71 °F /  21.7 °C 56.8 °F /  13.8 °C 29.80in /  1009hPa West 7.1mph /  11.4km/h 17mph /  27.4km/h 61% 0.00in /  0mm 831 W/m2
15:44 71 °F /  21.7 °C 56.9 °F /  13.8 °C 29.80in /  1009hPa WSW 5.7mph /  9.2km/h 12mph /  19.3km/h 61% 0.00in /  0mm 735 W/m2
15:49 70.6 °F /  21.4 °C 56.8 °F /  13.8 °C 29.80in /  1009hPa West 4.5mph /  7.2km/h 11mph /  17.7km/h 61.4% 0.00in /  0mm 283 W/m2
15:54 70.3 °F /  21.3 °C 57 °F /  13.9 °C 29.80in /  1009hPa West 7.8mph /  12.6km/h 16mph /  25.7km/h 62.7% 0.00in /  0mm 397 W/m2
15:59 70 °F /  21.1 °C 56.7 °F /  13.7 °C 29.80in /  1009hPa West 6.9mph /  11.1km/h 16mph /  25.7km/h 62.8% 0.00in /  0mm 408 W/m2
16:04 70.4 °F /  21.3 °C 56.5 °F /  13.6 °C 29.80in /  1009hPa West 9.5mph /  15.3km/h 16mph /  25.7km/h 61.3% 0.00in /  0mm 814 W/m2
16:09 71.1 °F /  21.7 °C 56.8 °F /  13.8 °C 29.80in /  1009hPa WNW 9mph /  14.5km/h 14mph /  22.5km/h 60.5% 0.00in /  0mm 726 W/m2
16:14 70.2 °F /  21.2 °C 55.9 °F /  13.3 °C 29.80in /  1009hPa WNW 7.9mph /  12.7km/h 14mph /  22.5km/h 60.8% 0.00in /  0mm 237 W/m2
16:19 69.7 °F /  20.9 °C 56.6 °F /  13.7 °C 29.80in /  1009hPa WNW 8.1mph /  13km/h 15mph /  24.1km/h 63% 0.00in /  0mm 436 W/m2
16:24 69.6 °F /  20.9 °C 56.5 °F /  13.6 °C 29.80in /  1009hPa West 7.7mph /  12.4km/h 15mph /  24.1km/h 63% 0.00in /  0mm 436 W/m2
16:29 69.4 °F /  20.8 °C 56.6 °F /  13.7 °C 29.80in /  1009hPa WNW 10.2mph /  16.4km/h 17mph /  27.4km/h 63.9% 0.00in /  0mm 287 W/m2
16:34 69.3 °F /  20.7 °C 56.5 °F /  13.6 °C 29.80in /  1009hPa West 6.1mph /  9.8km/h 17mph /  27.4km/h 64% 0.00in /  0mm 381 W/m2
16:39 69.5 °F /  20.8 °C 56.8 °F /  13.8 °C 29.80in /  1009hPa WNW 3.5mph /  5.6km/h 10mph /  16.1km/h 64% 0.00in /  0mm 332 W/m2
16:44 69.7 °F /  20.9 °C 57.1 °F /  13.9 °C 29.80in /  1009hPa West 5.7mph /  9.2km/h 11mph /  17.7km/h 64.3% 0.00in /  0mm 274 W/m2
16:49 69.7 °F /  20.9 °C 57.1 °F /  13.9 °C 29.80in /  1009hPa West 6mph /  9.7km/h 11mph /  17.7km/h 64.3% 0.00in /  0mm 239 W/m2
16:54 69.2 °F /  20.7 °C 56.5 °F /  13.6 °C 29.80in /  1009hPa West 8.7mph /  14km/h 15mph /  24.1km/h 64% 0.00in /  0mm 202 W/m2
16:59 68.9 °F /  20.5 °C 56.5 °F /  13.6 °C 29.80in /  1009hPa West 8.3mph /  13.4km/h 15mph /  24.1km/h 64.4% 0.00in /  0mm 156 W/m2
17:04 68.7 °F /  20.4 °C 56.5 °F /  13.6 °C 29.79in /  1008.7hPa West 5.8mph /  9.3km/h 13mph /  20.9km/h 65.2% 0.00in /  0mm 153 W/m2
17:09 68.9 °F /  20.5 °C 57 °F /  13.9 °C 29.79in /  1008.7hPa West 5.1mph /  8.2km/h 10mph /  16.1km/h 66% 0.00in /  0mm 221 W/m2
17:14 69.2 °F /  20.7 °C 57.1 °F /  13.9 °C 29.79in /  1008.7hPa WSW 5.3mph /  8.5km/h 13mph /  20.9km/h 65.5% 0.00in /  0mm 221 W/m2
17:19 68.9 °F /  20.5 °C 56.4 °F /  13.6 °C 29.79in /  1008.7hPa West 8.4mph /  13.5km/h 16mph /  25.7km/h 64.3% 0.00in /  0mm 181 W/m2
17:24 68.7 °F /  20.4 °C 56.5 °F /  13.6 °C 29.79in /  1008.7hPa WSW 6.6mph /  10.6km/h 12mph /  19.3km/h 65% 0.00in /  0mm 171 W/m2
17:29 68.7 °F /  20.4 °C 56.4 °F /  13.6 °C 29.79in /  1008.7hPa West 6.2mph /  10km/h 14mph /  22.5km/h 64.8% 0.00in /  0mm 195 W/m2
17:34 68.7 °F /  20.4 °C 56.3 °F /  13.5 °C 29.79in /  1008.7hPa West 6.3mph /  10.1km/h 13mph /  20.9km/h 64.4% 0.00in /  0mm 281 W/m2
17:39 68.7 °F /  20.4 °C 56.1 °F /  13.4 °C 29.79in /  1008.7hPa WNW 6.9mph /  11.1km/h 11mph /  17.7km/h 64% 0.00in /  0mm 206 W/m2
17:44 68.6 °F /  20.3 °C 56.1 °F /  13.4 °C 29.79in /  1008.7hPa West 5.7mph /  9.2km/h 11mph /  17.7km/h 64.2% 0.00in /  0mm 142 W/m2
17:49 68.7 °F /  20.4 °C 56.5 °F /  13.6 °C 29.79in /  1008.7hPa WSW 4.3mph /  6.9km/h 9mph /  14.5km/h 65% 0.00in /  0mm 146 W/m2
17:54 68.8 °F /  20.4 °C 56.9 °F /  13.8 °C 29.80in /  1009hPa WSW 5.5mph /  8.9km/h 11mph /  17.7km/h 66% 0.00in /  0mm 130 W/m2
17:59 68.6 °F /  20.3 °C 56.7 °F /  13.7 °C 29.79in /  1008.7hPa West 7mph /  11.3km/h 11mph /  17.7km/h 65.9% 0.00in /  0mm 142 W/m2
18:04 68.5 °F /  20.3 °C 56.6 °F /  13.7 °C 29.79in /  1008.7hPa WSW 3.3mph /  5.3km/h 11mph /  17.7km/h 65.9% 0.00in /  0mm 269 W/m2
18:09 68.9 °F /  20.5 °C 56.7 °F /  13.7 °C 29.79in /  1008.7hPa WSW 6.6mph /  10.6km/h 12mph /  19.3km/h 65.3% 0.00in /  0mm 485 W/m2
18:14 69.7 °F /  20.9 °C 56.5 °F /  13.6 °C 29.79in /  1008.7hPa WSW 9.1mph /  14.6km/h 17mph /  27.4km/h 63% 0.00in /  0mm 462 W/m2
18:19 69.9 °F /  21.1 °C 56.3 °F /  13.5 °C 29.79in /  1008.7hPa West 8.7mph /  14km/h 17mph /  27.4km/h 62.2% 0.00in /  0mm 425 W/m2
18:24 69.4 °F /  20.8 °C 55.9 °F /  13.3 °C 29.79in /  1008.7hPa WNW 7mph /  11.3km/h 15mph /  24.1km/h 62.1% 0.00in /  0mm 385 W/m2
18:29 69.1 °F /  20.6 °C 55.9 °F /  13.3 °C 29.79in /  1008.7hPa West 8.4mph /  13.5km/h 12mph /  19.3km/h 62.8% 0.00in /  0mm 367 W/m2
18:34 69.2 °F /  20.7 °C 56.1 °F /  13.4 °C 29.79in /  1008.7hPa West 7.7mph /  12.4km/h 13mph /  20.9km/h 63.2% 0.00in /  0mm 367 W/m2
18:39 69.3 °F /  20.7 °C 56 °F /  13.3 °C 29.79in /  1008.7hPa WSW 6.7mph /  10.8km/h 13mph /  20.9km/h 62.6% 0.00in /  0mm 364 W/m2
18:44 69.2 °F /  20.7 °C 56.1 °F /  13.4 °C 29.79in /  1008.7hPa West 5.7mph /  9.2km/h 13mph /  20.9km/h 63.2% 0.00in /  0mm 336 W/m2
18:49 69 °F /  20.6 °C 56.3 °F /  13.5 °C 29.79in /  1008.7hPa West 6mph /  9.7km/h 12mph /  19.3km/h 63.8% 0.00in /  0mm 204 W/m2
18:54 68.9 °F /  20.5 °C 56 °F /  13.3 °C 29.79in /  1008.7hPa WSW 6.7mph /  10.8km/h 12mph /  19.3km/h 63.5% 0.00in /  0mm 265 W/m2
18:59 68.8 °F /  20.4 °C 56.4 °F /  13.6 °C 29.79in /  1008.7hPa West 5.7mph /  9.2km/h 12mph /  19.3km/h 64.7% 0.00in /  0mm 272 W/m2
19:04 69.1 °F /  20.6 °C 56.8 °F /  13.8 °C 29.79in /  1008.7hPa WNW 4.8mph /  7.7km/h 8mph /  12.9km/h 65% 0.00in /  0mm 287 W/m2
19:09 68.9 °F /  20.5 °C 56.7 °F /  13.7 °C 29.79in /  1008.7hPa WNW 5.8mph /  9.3km/h 11mph /  17.7km/h 65% 0.00in /  0mm 169 W/m2
19:14 68.5 °F /  20.3 °C 56.7 °F /  13.7 °C 29.79in /  1008.7hPa WNW 6.2mph /  10km/h 12mph /  19.3km/h 66.2% 0.00in /  0mm 132 W/m2
19:19 67.8 °F /  19.9 °C 56.5 °F /  13.6 °C 29.79in /  1008.7hPa WNW 6.4mph /  10.3km/h 12mph /  19.3km/h 67% 0.00in /  0mm 91 W/m2
19:24 67.3 °F /  19.6 °C 56.3 °F /  13.5 °C 29.79in /  1008.7hPa WNW 5.8mph /  9.3km/h 11mph /  17.7km/h 68% 0.00in /  0mm 70 W/m2
19:29 67 °F /  19.4 °C 56 °F /  13.3 °C 29.79in /  1008.7hPa WNW 5.9mph /  9.5km/h 10mph /  16.1km/h 68% 0.00in /  0mm 60 W/m2
19:34 66.7 °F /  19.3 °C 56 °F /  13.3 °C 29.79in /  1008.7hPa West 6.3mph /  10.1km/h 10mph /  16.1km/h 68.3% 0.00in /  0mm 54 W/m2
19:39 66.7 °F /  19.3 °C 56.2 °F /  13.4 °C 29.79in /  1008.7hPa West 5.4mph /  8.7km/h 10mph /  16.1km/h 69% 0.00in /  0mm 44 W/m2
19:44 66.6 °F /  19.2 °C 56.1 °F /  13.4 °C 29.79in /  1008.7hPa West 5.3mph /  8.5km/h 9mph /  14.5km/h 69.1% 0.00in /  0mm 35 W/m2
19:49 66.3 °F /  19.1 °C 56.2 °F /  13.4 °C 29.79in /  1008.7hPa WNW 7.6mph /  12.2km/h 13mph /  20.9km/h 70% 0.00in /  0mm 23 W/m2
19:54 66 °F /  18.9 °C 55.9 °F /  13.3 °C 29.80in /  1009hPa West 6.8mph /  10.9km/h 16mph /  25.7km/h 70% 0.00in /  0mm 12 W/m2
19:59 65.4 °F /  18.6 °C 55.8 °F /  13.2 °C 29.80in /  1009hPa WNW 11.5mph /  18.5km/h 18mph /  29km/h 71.1% 0.00in /  0mm 9 W/m2
20:04 64.2 °F /  17.9 °C 55.4 °F /  13 °C 29.80in /  1009hPa WNW 8.5mph /  13.7km/h 15mph /  24.1km/h 73% 0.00in /  0mm 12 W/m2
20:09 63.3 °F /  17.4 °C 55 °F /  12.8 °C 29.80in /  1009hPa NW 7.6mph /  12.2km/h 11mph /  17.7km/h 74.3% 0.00in /  0mm 12 W/m2
20:14 62.9 °F /  17.2 °C 55.2 °F /  12.9 °C 29.80in /  1009hPa NW 5.4mph /  8.7km/h 13mph /  20.9km/h 76.1% 0.00in /  0mm 11 W/m2
20:19 62.6 °F /  17 °C 55.5 °F /  13.1 °C 29.80in /  1009hPa NW 3.6mph /  5.8km/h 9mph /  14.5km/h 77.8% 0.00in /  0mm 12 W/m2
20:24 62.5 °F /  16.9 °C 55.7 °F /  13.2 °C 29.80in /  1009hPa WNW 3mph /  4.8km/h 8mph /  12.9km/h 78.6% 0.00in /  0mm 11 W/m2
20:29 62.4 °F /  16.9 °C 55.8 °F /  13.2 °C 29.80in /  1009hPa NW 1.8mph /  2.9km/h 6mph /  9.7km/h 79.1% 0.00in /  0mm 7 W/m2
20:34 62.3 °F /  16.8 °C 56 °F /  13.3 °C 29.80in /  1009hPa WNW 2.2mph /  3.5km/h 5mph /  8km/h 80% 0.00in /  0mm 5 W/m2
20:39 62.2 °F /  16.8 °C 56.1 °F /  13.4 °C 29.80in /  1009hPa WNW 1.8mph /  2.9km/h 5mph /  8km/h 80.7% 0.00in /  0mm 5 W/m2
20:44 62.1 °F /  16.7 °C 56.3 °F /  13.5 °C 29.80in /  1009hPa WNW 0.3mph /  0.5km/h 3mph /  4.8km/h 81.2% 0.00in /  0mm 0 W/m2
20:49 62.2 °F /  16.8 °C 56.7 °F /  13.7 °C 29.80in /  1009hPa WNW 0.9mph /  1.4km/h 3mph /  4.8km/h 82% 0.00in /  0mm 0 W/m2
20:54 62.2 °F /  16.8 °C 56.7 °F /  13.7 °C 29.80in /  1009hPa WNW 0.8mph /  1.3km/h 4mph /  6.4km/h 82% 0.00in /  0mm 0 W/m2
20:59 62.2 °F /  16.8 °C 56.7 °F /  13.7 °C 29.80in /  1009hPa WNW 1.7mph /  2.7km/h 5mph /  8km/h 82% 0.00in /  0mm 0 W/m2
21:04 62.2 °F /  16.8 °C 56.7 °F /  13.7 °C 29.80in /  1009hPa WNW 1.6mph /  2.6km/h 5mph /  8km/h 82% 0.00in /  0mm 0 W/m2
21:09 62.2 °F /  16.8 °C 56.7 °F /  13.7 °C 29.81in /  1009.4hPa WNW 0.6mph /  1km/h 3mph /  4.8km/h 82% 0.00in /  0mm 0 W/m2
21:14 62.2 °F /  16.8 °C 56.7 °F /  13.7 °C 29.81in /  1009.4hPa WNW 0.5mph /  0.8km/h 3mph /  4.8km/h 82% 0.00in /  0mm 0 W/m2
21:19 62.2 °F /  16.8 °C 56.7 °F /  13.7 °C 29.81in /  1009.4hPa WNW 0.6mph /  1km/h 3mph /  4.8km/h 82% 0.00in /  0mm 0 W/m2
21:24 62.2 °F /  16.8 °C 56.7 °F /  13.7 °C 29.81in /  1009.4hPa WNW 1.5mph /  2.4km/h 5mph /  8km/h 81.9% 0.00in /  0mm 0 W/m2
21:29 62.4 °F /  16.9 °C 56.5 °F /  13.6 °C 29.81in /  1009.4hPa West 2.2mph /  3.5km/h 6mph /  9.7km/h 81% 0.00in /  0mm 0 W/m2
21:34 62.5 °F /  16.9 °C 56.5 °F /  13.6 °C 29.81in /  1009.4hPa West 2.4mph /  3.9km/h 6mph /  9.7km/h 80.7% 0.00in /  0mm 0 W/m2
21:39 62.6 °F /  17 °C 56.3 °F /  13.5 °C 29.81in /  1009.4hPa West 1.7mph /  2.7km/h 6mph /  9.7km/h 80% 0.00in /  0mm 0 W/m2
21:44 62.6 °F /  17 °C 56.1 °F /  13.4 °C 29.81in /  1009.4hPa West 2.5mph /  4km/h 5mph /  8km/h 79.5% 0.00in /  0mm 0 W/m2
21:49 62.6 °F /  17 °C 55.9 °F /  13.3 °C 29.81in /  1009.4hPa West 2.4mph /  3.9km/h 5mph /  8km/h 79% 0.00in /  0mm 0 W/m2
21:54 62.6 °F /  17 °C 55.9 °F /  13.3 °C 29.81in /  1009.4hPa WSW 2.9mph /  4.7km/h 8mph /  12.9km/h 79% 0.00in /  0mm 0 W/m2
21:59 62.6 °F /  17 °C 55.8 °F /  13.2 °C 29.81in /  1009.4hPa West 4.2mph /  6.8km/h 8mph /  12.9km/h 78.6% 0.00in /  0mm 0 W/m2
22:04 62.8 °F /  17.1 °C 55.8 °F /  13.2 °C 29.81in /  1009.4hPa West 2.5mph /  4km/h 6mph /  9.7km/h 78% 0.00in /  0mm 0 W/m2
22:09 62.8 °F /  17.1 °C 55.8 °F /  13.2 °C 29.81in /  1009.4hPa West 2.1mph /  3.4km/h 6mph /  9.7km/h 78% 0.00in /  0mm 0 W/m2
22:14 62.6 °F /  17 °C 55.5 °F /  13.1 °C 29.81in /  1009.4hPa West 2mph /  3.2km/h 6mph /  9.7km/h 77.6% 0.00in /  0mm 0 W/m2
22:19 62.6 °F /  17 °C 55.2 °F /  12.9 °C 29.81in /  1009.4hPa West 1.2mph /  1.9km/h 4mph /  6.4km/h 77% 0.00in /  0mm 0 W/m2
22:24 62.6 °F /  17 °C 55.2 °F /  12.9 °C 29.81in /  1009.4hPa West 1.6mph /  2.6km/h 4mph /  6.4km/h 77% 0.00in /  0mm 0 W/m2
22:29 62.6 °F /  17 °C 55 °F /  12.8 °C 29.81in /  1009.4hPa West 1.3mph /  2.1km/h 3mph /  4.8km/h 76.4% 0.00in /  0mm 0 W/m2
22:34 62.6 °F /  17 °C 54.9 °F /  12.7 °C 29.81in /  1009.4hPa West 2mph /  3.2km/h 5mph /  8km/h 76% 0.00in /  0mm 0 W/m2
22:39 62.6 °F /  17 °C 54.6 °F /  12.6 °C 29.81in /  1009.4hPa West 1.5mph /  2.4km/h 5mph /  8km/h 75.4% 0.00in /  0mm 0 W/m2
22:44 62.4 °F /  16.9 °C 54.3 °F /  12.4 °C 29.81in /  1009.4hPa West 1.8mph /  2.9km/h 5mph /  8km/h 75% 0.00in /  0mm 0 W/m2
22:49 62.4 °F /  16.9 °C 54.1 °F /  12.3 °C 29.81in /  1009.4hPa West 2.9mph /  4.7km/h 7mph /  11.3km/h 74.5% 0.00in /  0mm 0 W/m2
22:54 62.4 °F /  16.9 °C 53.7 °F /  12.1 °C 29.81in /  1009.4hPa WSW 3.5mph /  5.6km/h 7mph /  11.3km/h 73.3% 0.00in /  0mm 0 W/m2
22:59 62.5 °F /  16.9 °C 53.5 °F /  11.9 °C 29.81in /  1009.4hPa WSW 3.1mph /  5km/h 7mph /  11.3km/h 72.4% 0.00in /  0mm 0 W/m2
23:04 62.7 °F /  17.1 °C 53.2 °F /  11.8 °C 29.81in /  1009.4hPa SW 1.9mph /  3.1km/h 7mph /  11.3km/h 71.2% 0.00in /  0mm 0 W/m2
23:09 62.7 °F /  17.1 °C 53.5 °F /  11.9 °C 29.81in /  1009.4hPa SW 1.4mph /  2.3km/h 4mph /  6.4km/h 72% 0.00in /  0mm 0 W/m2
23:14 62.6 °F /  17 °C 53.8 °F /  12.1 °C 29.81in /  1009.4hPa SW 1mph /  1.6km/h 4mph /  6.4km/h 72.9% 0.00in /  0mm 0 W/m2
23:19 62.6 °F /  17 °C 53.8 °F /  12.1 °C 29.81in /  1009.4hPa SW 1.1mph /  1.8km/h 5mph /  8km/h 73% 0.00in /  0mm 0 W/m2
23:24 62.5 °F /  16.9 °C 53.8 °F /  12.1 °C 29.81in /  1009.4hPa SW 0.7mph /  1.1km/h 4mph /  6.4km/h 73.5% 0.00in /  0mm 0 W/m2
23:29 62.4 °F /  16.9 °C 53.8 °F /  12.1 °C 29.81in /  1009.4hPa SW 0.4mph /  0.6km/h 4mph /  6.4km/h 73.5% 0.00in /  0mm 0 W/m2
23:34 62.4 °F /  16.9 °C 54 °F /  12.2 °C 29.81in /  1009.4hPa SW 2mph /  3.2km/h 5mph /  8km/h 74% 0.00in /  0mm 0 W/m2
23:39 62.3 °F /  16.8 °C 54.3 °F /  12.4 °C 29.80in /  1009hPa SW 3.2mph /  5.1km/h 6mph /  9.7km/h 75.1% 0.00in /  0mm 0 W/m2
23:44 62.1 °F /  16.7 °C 54.6 °F /  12.6 °C 29.80in /  1009hPa SW 1.3mph /  2.1km/h 6mph /  9.7km/h 76.6% 0.00in /  0mm 0 W/m2
23:49 62 °F /  16.7 °C 54.9 °F /  12.7 °C 29.81in /  1009.4hPa SW 2.1mph /  3.4km/h 5mph /  8km/h 78% 0.00in /  0mm 0 W/m2
23:54 61.7 °F /  16.5 °C 55 °F /  12.8 °C 29.81in /  1009.4hPa SW 1.7mph /  2.7km/h 5mph /  8km/h 79.1% 0.00in /  0mm 0 W/m2
23:59 61.7 °F /  16.5 °C 55.4 °F /  13 °C 29.80in /  1009hPa SW 1.9mph /  3.1km/h 7mph /  11.3km/h 80% 0.00in /  0mm 0 W/m2
Bath Spa Weather
Compliments of Weather Underground - 2 mb